createdAt,value
2019-02-26T00:00:04.698Z,67.00
2019-02-26T00:02:08.375Z,66.40
2019-02-26T00:04:12.041Z,66.60
2019-02-26T00:06:16.762Z,66.60
2019-02-26T00:08:21.739Z,66.20
2019-02-26T00:10:27.230Z,66.30
2019-02-26T00:12:33.284Z,66.60
2019-02-26T00:14:37.274Z,66.60
2019-02-26T00:16:42.395Z,66.60
2019-02-26T00:18:46.551Z,67.00
2019-02-26T00:20:50.225Z,66.90
2019-02-26T00:22:55.329Z,67.00
2019-02-26T00:25:00.902Z,66.60
2019-02-26T00:27:05.488Z,66.40
2019-02-26T00:29:10.107Z,66.30
2019-02-26T00:31:13.761Z,66.20
2019-02-26T00:33:21.475Z,66.20
2019-02-26T00:35:23.580Z,66.00
2019-02-26T00:37:30.258Z,65.70
2019-02-26T00:39:33.630Z,66.00
2019-02-26T00:41:37.287Z,66.30
2019-02-26T00:43:40.963Z,66.40
2019-02-26T00:45:44.638Z,67.20
2019-02-26T00:47:48.318Z,67.10
2019-02-26T00:49:53.493Z,67.20
2019-02-26T00:51:57.204Z,67.70
2019-02-26T00:54:01.998Z,67.60
2019-02-26T00:56:08.024Z,67.80
2019-02-26T00:58:12.852Z,68.40
2019-02-26T01:00:17.286Z,67.70
2019-02-26T01:02:20.942Z,67.40
2019-02-26T01:04:24.626Z,66.50
2019-02-26T01:06:29.064Z,66.20
2019-02-26T01:08:35.590Z,66.20
2019-02-26T01:10:39.872Z,66.30
2019-02-26T01:12:44.563Z,66.30
2019-02-26T01:14:50.229Z,67.10
2019-02-26T01:16:53.731Z,66.80
2019-02-26T01:18:57.419Z,66.40
2019-02-26T01:21:02.528Z,66.60
2019-02-26T01:23:06.550Z,66.40
2019-02-26T01:25:12.672Z,65.80
2019-02-26T01:27:16.215Z,66.40
2019-02-26T01:29:20.821Z,66.60
2019-02-26T01:31:26.913Z,66.80
2019-02-26T01:33:32.155Z,66.70
2019-02-26T01:35:37.784Z,67.00
2019-02-26T01:37:41.606Z,67.10
2019-02-26T01:39:47.071Z,67.20
2019-02-26T01:41:53.308Z,67.00
2019-02-26T01:43:56.031Z,66.60
2019-02-26T01:45:59.713Z,66.30
2019-02-26T01:48:04.071Z,66.40
2019-02-26T01:50:13.219Z,66.20
2019-02-26T01:52:17.458Z,66.10
2019-02-26T01:54:21.382Z,66.30
2019-02-26T01:56:25.038Z,66.60
2019-02-26T01:58:28.694Z,66.70
2019-02-26T02:00:32.483Z,66.70
2019-02-26T02:02:36.182Z,69.30
2019-02-26T02:04:41.207Z,70.80
2019-02-26T02:06:45.335Z,71.40
2019-02-26T02:08:50.696Z,71.40
2019-02-26T02:10:57.117Z,71.10
2019-02-26T02:13:02.304Z,71.60
2019-02-26T02:15:10.051Z,72.00
2019-02-26T02:17:13.899Z,71.60
2019-02-26T02:19:20.046Z,72.40
2019-02-26T02:21:24.129Z,72.80
2019-02-26T02:23:30.250Z,76.60
2019-02-26T02:25:35.686Z,77.10
2019-02-26T02:27:39.191Z,78.80
2019-02-26T02:29:45.700Z,79.10
2019-02-26T02:31:48.363Z,78.20
2019-02-26T02:33:52.018Z,77.30
2019-02-26T02:35:55.667Z,76.40
2019-02-26T02:38:01.689Z,77.00
2019-02-26T02:40:07.171Z,77.80
2019-02-26T02:42:13.340Z,79.80
2019-02-26T02:44:17.965Z,79.00
2019-02-26T02:46:21.620Z,76.50
2019-02-26T02:48:25.332Z,74.60
2019-02-26T02:50:29.019Z,75.30
2019-02-26T02:52:35.138Z,74.80
2019-02-26T02:54:38.563Z,74.80
2019-02-26T02:56:44.345Z,73.60
2019-02-26T02:58:49.501Z,72.80
2019-02-26T03:00:54.239Z,72.20
2019-02-26T03:02:58.927Z,71.40
2019-02-26T03:05:02.575Z,70.50
2019-02-26T03:07:06.267Z,70.10
2019-02-26T03:09:15.208Z,70.80
2019-02-26T03:11:19.478Z,71.30
2019-02-26T03:13:25.433Z,71.80
2019-02-26T03:15:30.010Z,74.00
2019-02-26T03:17:33.994Z,73.90
2019-02-26T03:19:40.698Z,75.90
2019-02-26T03:21:45.390Z,76.30
2019-02-26T03:23:48.511Z,75.30
2019-02-26T03:25:52.962Z,74.50
2019-02-26T03:27:57.586Z,76.40
2019-02-26T03:30:02.061Z,77.40
2019-02-26T03:32:05.968Z,77.10
2019-02-26T03:34:14.673Z,77.00
2019-02-26T03:36:16.662Z,76.10
2019-02-26T03:38:21.145Z,75.70
2019-02-26T03:40:27.033Z,77.20
2019-02-26T03:42:33.252Z,77.50
2019-02-26T03:44:36.673Z,77.80
2019-02-26T03:46:40.330Z,77.20
2019-02-26T03:48:44.043Z,76.30
2019-02-26T03:50:48.467Z,75.20
2019-02-26T03:52:52.144Z,76.50
2019-02-26T03:54:55.924Z,76.00
2019-02-26T03:56:59.873Z,74.30
2019-02-26T03:59:06.253Z,73.40
2019-02-26T04:01:10.929Z,74.70
2019-02-26T04:03:16.778Z,74.60
2019-02-26T04:05:19.845Z,73.50
2019-02-26T04:07:25.994Z,73.10
2019-02-26T04:09:28.972Z,72.40
2019-02-26T04:11:32.659Z,73.10
2019-02-26T04:13:36.310Z,74.60
2019-02-26T04:15:40.184Z,74.50
2019-02-26T04:17:43.879Z,74.50
2019-02-26T04:19:49.010Z,75.00
2019-02-26T04:22:26.608Z,76.70
2019-02-26T04:24:33.371Z,75.80
2019-02-26T04:26:57.035Z,76.50
2019-02-26T04:29:03.645Z,78.00
2019-02-26T04:31:28.254Z,79.10
2019-02-26T04:33:41.373Z,79.10
2019-02-26T04:35:57.243Z,79.20
2019-02-26T04:38:23.376Z,78.60
2019-02-26T04:40:35.754Z,77.00
2019-02-26T04:43:13.637Z,77.10
2019-02-26T04:45:25.973Z,77.50
2019-02-26T04:47:48.216Z,76.40
2019-02-26T04:49:50.265Z,76.90
2019-02-26T04:51:53.990Z,76.60
2019-02-26T04:53:59.485Z,76.90
2019-02-26T04:56:05.947Z,77.60
2019-02-26T04:58:10.730Z,79.90
2019-02-26T05:00:14.154Z,80.10
2019-02-26T05:02:17.850Z,80.80
2019-02-26T05:04:21.510Z,78.80
2019-02-26T05:06:25.215Z,77.00
2019-02-26T05:08:29.432Z,75.40
2019-02-26T05:10:34.420Z,75.70
2019-02-26T05:12:40.181Z,75.90
2019-02-26T05:14:43.593Z,77.10
2019-02-26T05:16:47.264Z,77.70
2019-02-26T05:18:51.757Z,78.00
2019-02-26T05:20:56.442Z,78.00
2019-02-26T05:23:01.005Z,77.40
2019-02-26T05:25:10.381Z,79.30
2019-02-26T05:27:15.668Z,78.80
2019-02-26T05:29:19.769Z,76.70
2019-02-26T05:31:23.418Z,76.40
2019-02-26T05:33:27.668Z,75.70
2019-02-26T05:35:32.514Z,74.80
2019-02-26T05:37:38.214Z,77.60
2019-02-26T05:39:43.198Z,77.80
2019-02-26T05:41:47.064Z,79.40
2019-02-26T05:43:55.259Z,81.80
2019-02-26T05:45:59.935Z,81.30
2019-02-26T05:48:02.045Z,83.00
2019-02-26T05:50:12.971Z,81.60
2019-02-26T05:52:13.141Z,80.90
2019-02-26T05:54:20.846Z,81.50
2019-02-26T05:56:22.889Z,82.80
2019-02-26T05:58:26.741Z,83.60
2019-02-26T06:00:33.145Z,83.30
2019-02-26T06:02:38.825Z,82.20
2019-02-26T06:04:43.885Z,82.00
2019-02-26T06:06:50.290Z,81.70
2019-02-26T06:08:54.375Z,80.90
2019-02-26T06:10:57.477Z,80.30
2019-02-26T06:13:02.202Z,78.70
2019-02-26T06:15:08.006Z,78.00
2019-02-26T06:17:13.165Z,79.90
2019-02-26T06:19:19.181Z,79.70
2019-02-26T06:21:23.607Z,78.40
2019-02-26T06:23:31.210Z,77.10
2019-02-26T06:25:33.651Z,77.80
2019-02-26T06:27:37.314Z,78.10
2019-02-26T06:29:41.079Z,80.00
2019-02-26T06:31:46.824Z,81.90
2019-02-26T06:33:50.709Z,83.00
2019-02-26T06:35:55.300Z,82.60
2019-02-26T06:38:01.983Z,84.00
2019-02-26T06:40:08.302Z,83.20
2019-02-26T06:42:12.665Z,81.60
2019-02-26T06:44:17.363Z,81.60
2019-02-26T06:46:21.130Z,81.60
2019-02-26T06:48:26.896Z,82.80
2019-02-26T06:50:31.810Z,83.20
2019-02-26T06:52:38.173Z,82.50
2019-02-26T06:54:40.936Z,81.10
2019-02-26T06:56:46.212Z,81.30
2019-02-26T06:58:50.022Z,80.40
2019-02-26T07:00:55.433Z,79.20
2019-02-26T07:03:00.128Z,79.40
2019-02-26T07:05:06.650Z,78.50
2019-02-26T07:07:14.156Z,80.40
2019-02-26T07:09:17.778Z,80.00
2019-02-26T07:11:21.162Z,79.60
2019-02-26T07:13:24.823Z,80.00
2019-02-26T07:15:29.338Z,79.10
2019-02-26T07:17:34.334Z,79.30
2019-02-26T07:19:38.551Z,79.50
2019-02-26T07:21:42.855Z,79.80
2019-02-26T07:23:47.708Z,79.00
2019-02-26T07:25:51.406Z,79.30
2019-02-26T07:27:56.324Z,77.80
2019-02-26T07:30:00.518Z,76.80
2019-02-26T07:32:04.215Z,76.40
2019-02-26T07:34:08.149Z,75.60
2019-02-26T07:36:11.839Z,75.30
2019-02-26T07:38:16.228Z,74.80
2019-02-26T07:40:21.182Z,74.30
2019-02-26T07:42:24.897Z,73.90
2019-02-26T07:44:28.565Z,74.00
2019-02-26T07:46:33.717Z,74.40
2019-02-26T07:48:37.722Z,74.10
2019-02-26T07:50:44.103Z,73.90
2019-02-26T07:52:47.459Z,74.00
2019-02-26T07:54:52.235Z,73.60
2019-02-26T07:56:57.615Z,73.60
2019-02-26T07:59:04.242Z,74.50
2019-02-26T08:01:06.733Z,74.10
2019-02-26T08:03:10.561Z,74.30
2019-02-26T08:05:16.150Z,74.00
2019-02-26T08:07:21.520Z,76.00
2019-02-26T08:09:25.056Z,76.30
2019-02-26T08:11:28.717Z,76.60
2019-02-26T08:13:34.099Z,75.90
2019-02-26T08:15:39.802Z,75.20
2019-02-26T08:17:45.663Z,74.90
2019-02-26T08:19:49.331Z,74.80
2019-02-26T08:21:54.872Z,74.30
2019-02-26T08:23:58.632Z,73.90
2019-02-26T08:26:02.355Z,73.30
2019-02-26T08:28:06.046Z,73.40
2019-02-26T08:30:14.499Z,73.20
2019-02-26T08:32:20.487Z,73.30
2019-02-26T08:34:23.321Z,75.30
2019-02-26T08:36:26.987Z,75.00
2019-02-26T08:38:30.652Z,75.20
2019-02-26T08:40:34.350Z,75.10
2019-02-26T08:42:38.008Z,76.10
2019-02-26T08:44:41.692Z,76.50
2019-02-26T08:46:46.636Z,76.50
2019-02-26T08:48:50.906Z,75.40
2019-02-26T08:50:55.833Z,74.40
2019-02-26T08:52:59.696Z,74.80
2019-02-26T08:55:03.381Z,76.60
2019-02-26T08:57:07.043Z,75.70
2019-02-26T08:59:10.733Z,76.50
2019-02-26T09:01:14.408Z,75.40
2019-02-26T09:03:20.394Z,75.20
2019-02-26T09:05:25.851Z,73.40
2019-02-26T09:07:28.914Z,73.10
2019-02-26T09:09:32.878Z,72.50
2019-02-26T09:11:38.691Z,71.70
2019-02-26T09:13:43.892Z,71.60
2019-02-26T09:15:47.979Z,71.10
2019-02-26T09:17:51.642Z,70.30
2019-02-26T09:20:06.432Z,70.50
2019-02-26T09:22:00.732Z,70.90
2019-02-26T09:24:07.499Z,70.10
2019-02-26T09:26:10.314Z,70.20
2019-02-26T09:28:14.000Z,70.50
2019-02-26T09:30:19.336Z,69.90
2019-02-26T09:32:23.195Z,70.00
2019-02-26T09:34:29.305Z,69.90
2019-02-26T09:36:32.413Z,69.00
2019-02-26T09:38:36.107Z,68.60
2019-02-26T09:40:39.772Z,69.00
2019-02-26T09:42:44.388Z,68.10
2019-02-26T09:44:50.642Z,67.60
2019-02-26T09:46:55.269Z,68.00
2019-02-26T09:49:00.970Z,67.80
2019-02-26T09:51:07.600Z,67.70
2019-02-26T09:53:10.867Z,67.40
2019-02-26T09:55:16.441Z,67.60
2019-02-26T09:57:22.849Z,66.90
2019-02-26T09:59:26.547Z,66.50
2019-02-26T10:01:33.149Z,65.60
2019-02-26T10:03:38.958Z,66.90
2019-02-26T10:05:41.962Z,65.70
2019-02-26T10:07:45.657Z,65.60
2019-02-26T10:09:49.550Z,64.80
2019-02-26T10:11:53.220Z,64.20
2019-02-26T10:13:56.923Z,63.90
2019-02-26T10:16:02.037Z,63.10
2019-02-26T10:18:07.227Z,63.30
2019-02-26T10:20:13.658Z,63.90
2019-02-26T10:22:17.393Z,64.40
2019-02-26T10:24:23.103Z,63.70
2019-02-26T10:26:30.553Z,63.30
2019-02-26T10:28:35.175Z,63.00
2019-02-26T10:30:41.036Z,63.00
2019-02-26T10:32:44.055Z,62.50
2019-02-26T10:34:48.460Z,62.70
2019-02-26T10:36:52.128Z,62.70
2019-02-26T10:38:57.787Z,63.00
2019-02-26T10:41:01.825Z,62.00
2019-02-26T10:43:05.772Z,61.80
2019-02-26T10:45:11.565Z,62.50
2019-02-26T10:47:15.235Z,62.70
2019-02-26T10:49:18.934Z,62.60
2019-02-26T10:51:26.024Z,61.60
2019-02-26T10:53:28.014Z,61.20
2019-02-26T10:55:38.342Z,61.30
2019-02-26T10:57:38.472Z,60.40
2019-02-26T10:59:44.939Z,60.60
2019-02-26T11:01:51.606Z,61.60
2019-02-26T11:03:55.180Z,60.10
2019-02-26T11:05:59.051Z,60.00
2019-02-26T11:08:06.541Z,59.40
2019-02-26T11:10:11.965Z,58.70
2019-02-26T11:12:15.337Z,59.90
2019-02-26T11:14:19.504Z,59.90
2019-02-26T11:16:25.320Z,60.30
2019-02-26T11:18:29.554Z,59.30
2019-02-26T11:20:34.257Z,58.00
2019-02-26T11:22:41.635Z,57.60
2019-02-26T11:24:43.471Z,58.40
2019-02-26T11:26:47.294Z,59.30
2019-02-26T11:28:50.971Z,59.40
2019-02-26T11:30:56.561Z,58.80
2019-02-26T11:33:04.803Z,58.00
2019-02-26T11:35:08.683Z,58.10
2019-02-26T11:37:12.357Z,58.80
2019-02-26T11:39:16.642Z,57.30
2019-02-26T11:41:20.395Z,56.40
2019-02-26T11:43:26.880Z,56.10
2019-02-26T11:45:29.433Z,57.40
2019-02-26T11:47:36.358Z,54.10
2019-02-26T11:49:39.430Z,54.30
2019-02-26T11:51:43.942Z,55.20
2019-02-26T11:53:47.645Z,53.70
2019-02-26T11:55:52.699Z,53.10
2019-02-26T11:57:56.828Z,54.90
2019-02-26T12:00:01.858Z,54.60
2019-02-26T12:02:06.533Z,55.30
2019-02-26T12:04:11.368Z,54.80
2019-02-26T12:06:15.627Z,54.40
2019-02-26T12:08:22.164Z,54.40
2019-02-26T12:10:27.091Z,54.80
2019-02-26T12:12:31.138Z,53.60
2019-02-26T12:14:37.963Z,53.50
2019-02-26T12:16:40.913Z,53.80
2019-02-26T12:18:46.880Z,53.40
2019-02-26T12:20:50.008Z,53.30
2019-02-26T12:22:55.465Z,52.40
2019-02-26T12:25:01.825Z,52.00
2019-02-26T12:27:04.503Z,51.80
2019-02-26T12:29:08.238Z,52.20
2019-02-26T12:31:12.938Z,50.80
2019-02-26T12:33:16.801Z,50.90
2019-02-26T12:35:20.722Z,52.00
2019-02-26T12:37:24.391Z,51.80
2019-02-26T12:39:31.225Z,51.10
2019-02-26T12:41:36.609Z,51.10
2019-02-26T12:43:42.674Z,51.00
2019-02-26T12:45:44.406Z,50.70
2019-02-26T12:47:49.374Z,50.50
2019-02-26T12:49:53.659Z,50.90
2019-02-26T12:51:59.676Z,51.10
2019-02-26T12:54:03.509Z,51.00
2019-02-26T12:56:09.734Z,50.20
2019-02-26T12:58:15.199Z,49.30
2019-02-26T13:00:24.608Z,51.90
2019-02-26T13:02:28.313Z,52.20
2019-02-26T13:04:32.035Z,51.40
2019-02-26T13:06:38.281Z,50.90
2019-02-26T13:08:42.706Z,50.80
2019-02-26T13:10:50.342Z,49.60
2019-02-26T13:12:55.195Z,49.70
2019-02-26T13:15:03.200Z,49.30
2019-02-26T13:17:02.850Z,48.90
2019-02-26T13:19:06.632Z,49.80
2019-02-26T13:21:13.454Z,49.70
2019-02-26T13:25:22.577Z,48.10
2019-02-26T13:27:26.530Z,49.30
2019-02-26T13:29:31.350Z,48.70
2019-02-26T13:31:41.739Z,49.10
2019-02-26T13:33:42.021Z,49.00
2019-02-26T13:35:50.720Z,49.80
2019-02-26T13:37:53.619Z,49.50
2019-02-26T13:39:57.342Z,49.50
2019-02-26T13:42:09.139Z,48.50
2019-02-26T13:44:07.939Z,48.00
2019-02-26T13:46:11.929Z,49.20
2019-02-26T13:48:15.632Z,48.60
2019-02-26T13:50:27.210Z,48.70
2019-02-26T13:52:30.928Z,48.50
2019-02-26T13:54:35.917Z,48.20
2019-02-26T13:56:39.588Z,49.30
2019-02-26T13:58:43.323Z,48.60
2019-02-26T14:00:46.987Z,48.80
2019-02-26T14:02:50.961Z,48.80
2019-02-26T14:04:54.637Z,48.70
2019-02-26T14:06:58.328Z,47.30
2019-02-26T14:09:02.028Z,46.90
2019-02-26T14:11:05.708Z,48.50
2019-02-26T14:13:09.475Z,49.40
2019-02-26T14:15:18.847Z,48.70
2019-02-26T14:17:22.509Z,47.30
2019-02-26T14:19:26.201Z,47.60
2019-02-26T14:21:29.856Z,47.30
2019-02-26T14:23:35.061Z,47.60
2019-02-26T14:25:38.913Z,46.80
2019-02-26T14:27:42.723Z,46.00
2019-02-26T14:29:46.959Z,46.50
2019-02-26T14:31:50.719Z,46.80
2019-02-26T14:33:54.435Z,46.80
2019-02-26T14:35:58.155Z,46.60
2019-02-26T14:38:01.828Z,47.50
2019-02-26T14:40:08.540Z,47.20
2019-02-26T14:42:12.369Z,47.20
2019-02-26T14:44:16.198Z,47.50
2019-02-26T14:46:19.966Z,47.20
2019-02-26T14:48:23.651Z,47.70
2019-02-26T14:50:27.443Z,47.50
2019-02-26T14:52:31.107Z,47.70
2019-02-26T14:54:34.991Z,48.00
2019-02-26T14:56:38.664Z,47.50
2019-02-26T14:58:42.319Z,47.40
2019-02-26T15:00:54.970Z,47.40
2019-02-26T15:02:51.843Z,46.90
2019-02-26T15:04:57.057Z,47.40
2019-02-26T15:07:00.920Z,47.40
2019-02-26T15:09:05.584Z,47.30
2019-02-26T15:11:09.403Z,47.00
2019-02-26T15:13:13.078Z,47.20
2019-02-26T15:15:17.688Z,47.20
2019-02-26T15:17:21.353Z,47.20
2019-02-26T15:19:25.029Z,47.00
2019-02-26T15:21:29.115Z,47.30
2019-02-26T15:23:32.869Z,47.60
2019-02-26T15:25:36.615Z,47.50
2019-02-26T15:27:40.348Z,47.40
2019-02-26T15:29:44.020Z,47.90
2019-02-26T15:31:47.707Z,48.20
2019-02-26T15:33:51.665Z,48.40
2019-02-26T15:35:55.377Z,47.50
2019-02-26T15:37:59.212Z,48.80
2019-02-26T15:40:02.878Z,48.90
2019-02-26T15:42:06.583Z,48.70
2019-02-26T15:44:11.903Z,48.20
2019-02-26T15:46:15.759Z,48.30
2019-02-26T15:48:19.442Z,48.90
2019-02-26T15:50:23.119Z,49.10
2019-02-26T15:52:26.808Z,48.90
2019-02-26T15:54:30.593Z,48.80
2019-02-26T15:56:34.295Z,49.10
2019-02-26T15:58:38.333Z,49.00
2019-02-26T16:00:42.102Z,49.10
2019-02-26T16:02:46.196Z,49.10
2019-02-26T16:04:49.865Z,49.40
2019-02-26T16:06:53.600Z,49.90
2019-02-26T16:08:57.303Z,49.60
2019-02-26T16:11:00.977Z,49.80
2019-02-26T16:13:04.668Z,50.40
2019-02-26T16:15:15.179Z,50.40
2019-02-26T16:17:18.857Z,50.50
2019-02-26T16:19:22.602Z,50.80
2019-02-26T16:21:26.349Z,51.10
2019-02-26T16:23:30.220Z,52.00
2019-02-26T16:25:33.891Z,50.80
2019-02-26T16:27:37.946Z,51.50
2019-02-26T16:29:41.911Z,51.40
2019-02-26T16:31:45.585Z,51.90
2019-02-26T16:33:49.269Z,52.90
2019-02-26T16:35:53.220Z,53.20
2019-02-26T16:37:56.888Z,52.80
2019-02-26T16:40:00.584Z,53.60
2019-02-26T16:42:04.245Z,54.20
2019-02-26T16:44:07.949Z,53.50
2019-02-26T16:46:11.669Z,53.90
2019-02-26T16:48:15.345Z,54.00
2019-02-26T16:50:25.915Z,54.60
2019-02-26T16:52:29.632Z,54.20
2019-02-26T16:54:33.327Z,54.40
2019-02-26T16:56:37.079Z,54.90
2019-02-26T16:58:40.747Z,54.70
2019-02-26T17:00:46.548Z,54.50
2019-02-26T17:02:50.108Z,54.70
2019-02-26T17:04:53.804Z,54.80
2019-02-26T17:06:57.466Z,54.90
2019-02-26T17:09:01.152Z,55.40
2019-02-26T17:11:04.902Z,55.20
2019-02-26T17:13:08.852Z,55.40
2019-02-26T17:15:18.315Z,55.70
2019-02-26T17:17:22.015Z,55.80
2019-02-26T17:19:25.670Z,55.80
2019-02-26T17:21:30.772Z,56.30
2019-02-26T17:23:34.935Z,56.60
2019-02-26T17:25:38.966Z,56.70
2019-02-26T17:27:42.641Z,57.00
2019-02-26T17:29:49.407Z,57.40
2019-02-26T17:31:52.772Z,57.50
2019-02-26T17:33:56.562Z,57.50
2019-02-26T17:36:02.027Z,57.80
2019-02-26T17:38:05.750Z,57.50
2019-02-26T17:40:20.394Z,57.90
2019-02-26T17:42:24.065Z,57.90
2019-02-26T17:44:27.895Z,57.70
2019-02-26T17:46:31.587Z,58.20
2019-02-26T17:48:43.258Z,58.00
2019-02-26T17:50:43.303Z,58.00
2019-02-26T17:52:46.979Z,58.30
2019-02-26T17:54:50.642Z,58.40
2019-02-26T17:56:54.352Z,58.60
2019-02-26T17:58:58.013Z,58.90
2019-02-26T18:01:01.833Z,58.80
2019-02-26T18:03:07.249Z,58.90
2019-02-26T18:05:10.950Z,59.30
2019-02-26T18:07:14.648Z,59.40
2019-02-26T18:09:18.459Z,59.60
2019-02-26T18:11:23.710Z,59.50
2019-02-26T18:13:27.743Z,59.80
2019-02-26T18:15:31.407Z,59.80
2019-02-26T18:17:35.079Z,60.00
2019-02-26T18:19:38.782Z,60.40
2019-02-26T18:21:43.622Z,60.10
2019-02-26T18:23:47.720Z,60.40
2019-02-26T18:25:51.424Z,60.40
2019-02-26T18:27:55.239Z,60.40
2019-02-26T18:29:58.952Z,60.50
2019-02-26T18:32:02.620Z,60.90
2019-02-26T18:34:06.329Z,61.40
2019-02-26T18:36:10.029Z,61.20
2019-02-26T18:38:13.756Z,61.30
2019-02-26T18:40:18.053Z,61.50
2019-02-26T18:42:21.782Z,61.40
2019-02-26T18:44:25.491Z,61.40
2019-02-26T18:46:34.212Z,61.40
2019-02-26T18:48:38.409Z,61.60
2019-02-26T18:50:42.115Z,61.50
2019-02-26T18:52:45.793Z,61.60
2019-02-26T18:54:51.777Z,61.40
2019-02-26T18:56:54.879Z,61.30
2019-02-26T18:58:58.684Z,61.50
2019-02-26T19:01:02.351Z,61.80
2019-02-26T19:03:08.671Z,61.90
2019-02-26T19:05:13.257Z,61.90
2019-02-26T19:07:16.919Z,62.00
2019-02-26T19:09:20.640Z,61.80
2019-02-26T19:11:25.642Z,62.00
2019-02-26T19:13:29.746Z,62.10
2019-02-26T19:15:34.846Z,61.90
2019-02-26T19:17:38.538Z,61.60
2019-02-26T19:19:42.588Z,61.60
2019-02-26T19:21:46.424Z,62.20
2019-02-26T19:23:50.082Z,61.90
2019-02-26T19:25:53.799Z,61.70
2019-02-26T19:27:57.474Z,61.80
2019-02-26T19:30:03.901Z,61.60
2019-02-26T19:32:06.624Z,61.80
2019-02-26T19:34:10.351Z,62.10
2019-02-26T19:36:14.038Z,62.00
2019-02-26T19:38:17.743Z,61.90
2019-02-26T19:40:24.393Z,61.90
2019-02-26T19:42:28.195Z,61.90
2019-02-26T19:44:35.726Z,61.60
2019-02-26T19:46:37.299Z,61.70
2019-02-26T19:48:40.964Z,62.30
2019-02-26T19:50:47.852Z,61.60
2019-02-26T19:52:56.674Z,61.40
2019-02-26T19:54:55.623Z,61.10
2019-02-26T19:56:59.326Z,62.00
2019-02-26T19:59:02.992Z,61.20
2019-02-26T20:01:06.733Z,61.70
2019-02-26T20:03:10.525Z,61.80
2019-02-26T20:05:15.087Z,61.70
2019-02-26T20:07:18.908Z,62.60
2019-02-26T20:09:22.679Z,63.60
2019-02-26T20:11:26.381Z,65.70
2019-02-26T20:13:31.714Z,67.00
2019-02-26T20:15:35.560Z,67.70
2019-02-26T20:17:39.249Z,71.20
2019-02-26T20:19:42.895Z,69.30
2019-02-26T20:21:46.737Z,67.10
2019-02-26T20:23:50.498Z,65.30
2019-02-26T20:25:54.286Z,64.10
2019-02-26T20:28:05.022Z,63.00
2019-02-26T20:30:04.602Z,62.40
2019-02-26T20:32:08.270Z,61.40
2019-02-26T20:34:11.987Z,61.40
2019-02-26T20:36:17.620Z,61.50
2019-02-26T20:38:21.193Z,61.60
2019-02-26T20:40:25.365Z,61.50
2019-02-26T20:42:29.541Z,61.30
2019-02-26T20:44:33.318Z,61.60
2019-02-26T20:46:36.971Z,61.80
2019-02-26T20:48:40.655Z,61.90
2019-02-26T20:50:44.343Z,61.30
2019-02-26T20:52:48.043Z,61.30
2019-02-26T20:54:51.757Z,61.50
2019-02-26T20:56:55.520Z,61.30
2019-02-26T20:58:59.392Z,61.50
2019-02-26T21:01:03.108Z,61.90
2019-02-26T21:03:08.062Z,62.00
2019-02-26T21:05:12.675Z,62.10
2019-02-26T21:07:16.352Z,62.40
2019-02-26T21:09:20.145Z,62.30
2019-02-26T21:11:23.824Z,62.40
2019-02-26T21:13:27.555Z,62.10
2019-02-26T21:15:31.285Z,62.10
2019-02-26T21:17:34.943Z,62.40
2019-02-26T21:19:38.650Z,62.90
2019-02-26T21:21:42.351Z,63.20
2019-02-26T21:23:46.019Z,63.30
2019-02-26T21:25:49.719Z,63.30
2019-02-26T21:27:53.416Z,63.10
2019-02-26T21:29:57.128Z,63.10
2019-02-26T21:32:00.930Z,63.10
2019-02-26T21:34:04.716Z,62.40
2019-02-26T21:36:08.406Z,62.60
2019-02-26T21:38:13.165Z,62.70
2019-02-26T21:40:17.169Z,62.90
2019-02-26T21:42:21.099Z,62.80
2019-02-26T21:44:24.798Z,62.90
2019-02-26T21:46:28.480Z,62.80
2019-02-26T21:48:32.195Z,63.00
2019-02-26T21:50:35.899Z,62.80
2019-02-26T21:52:41.820Z,62.30
2019-02-26T21:54:45.365Z,62.60
2019-02-26T21:56:49.527Z,62.80
2019-02-26T21:58:53.421Z,63.00
2019-02-26T22:00:57.211Z,63.30
2019-02-26T22:03:00.883Z,63.00
2019-02-26T22:05:05.932Z,63.20
2019-02-26T22:07:09.926Z,63.10
2019-02-26T22:09:13.604Z,62.70
2019-02-26T22:11:18.615Z,62.20
2019-02-26T22:13:22.711Z,62.20
2019-02-26T22:15:26.370Z,63.10
2019-02-26T22:17:30.053Z,64.50
2019-02-26T22:19:33.724Z,64.60
2019-02-26T22:21:37.404Z,63.70
2019-02-26T22:23:41.100Z,63.50
2019-02-26T22:25:44.790Z,63.00
2019-02-26T22:27:48.482Z,62.80
2019-02-26T22:29:52.156Z,62.60
2019-02-26T22:31:55.861Z,62.40
2019-02-26T22:34:01.026Z,62.20
2019-02-26T22:36:04.696Z,62.20
2019-02-26T22:38:08.391Z,62.50
2019-02-26T22:40:15.160Z,62.20
2019-02-26T22:42:18.984Z,62.40
2019-02-26T22:44:22.690Z,62.20
2019-02-26T22:46:26.351Z,61.80
2019-02-26T22:48:30.042Z,62.50
2019-02-26T22:50:33.701Z,63.10
2019-02-26T22:52:37.498Z,63.70
2019-02-26T22:54:43.507Z,63.80
2019-02-26T22:56:46.551Z,63.60
2019-02-26T22:58:50.336Z,63.30
2019-02-26T23:00:58.849Z,63.10
2019-02-26T23:03:03.431Z,63.40
2019-02-26T23:05:07.483Z,63.50
2019-02-26T23:07:11.348Z,63.50
2019-02-26T23:09:17.886Z,63.00
2019-02-26T23:11:22.154Z,62.80
2019-02-26T23:13:26.049Z,63.20
2019-02-26T23:15:29.925Z,63.60
2019-02-26T23:17:33.588Z,64.20
2019-02-26T23:19:39.331Z,63.90
2019-02-26T23:21:43.271Z,65.10
2019-02-26T23:23:47.163Z,65.40
2019-02-26T23:25:50.820Z,65.70
2019-02-26T23:27:54.503Z,65.90
2019-02-26T23:29:58.183Z,65.70
2019-02-26T23:32:03.800Z,64.90
2019-02-26T23:34:07.366Z,64.60
2019-02-26T23:36:11.735Z,63.20
2019-02-26T23:38:15.395Z,62.50
2019-02-26T23:40:19.992Z,61.50
2019-02-26T23:42:23.639Z,62.40
2019-02-26T23:44:27.323Z,62.60
2019-02-26T23:46:30.978Z,62.70
2019-02-26T23:48:34.640Z,62.20
2019-02-26T23:50:38.327Z,61.80
2019-02-26T23:52:41.991Z,61.20
2019-02-26T23:54:45.771Z,61.10
2019-02-26T23:56:49.811Z,61.90
2019-02-26T23:58:54.804Z,61.90
